Time;durP1;ratioP1;P1;durP2;ratioP2;P2;SDS_P1;SDS_P2;PMS_P1;PMS_P2;Temp;Humidity;BMP_temperature;BMP_pressure;BME280_temperature;BME280_humidity;BME280_pressure;Samples;Min_cycle;Max_cycle;Signal;HPM_P1;HPM_P2
2022/10/24 00:01:16;;;;;;;9.83;9.03;;;;;;;11.52;93.06;93545.38;5072715;28;20182;-68
2022/10/24 00:03:41;;;;;;;11.10;10.27;;;;;;;11.41;93.35;93543.78;5071510;28;20230;-69
2022/10/24 00:06:09;;;;;;;10.57;9.83;;;;;;;11.36;94.21;93550.56;5072939;28;20257;-69
2022/10/24 00:08:36;;;;;;;10.87;10.17;;;;;;;11.43;94.19;93549.53;5072135;28;20248;-69
2022/10/24 00:11:01;;;;;;;10.73;9.87;;;;;;;11.44;94.02;93549.28;5072466;28;20308;-68
2022/10/24 00:13:27;;;;;;;11.80;10.80;;;;;;;11.31;94.55;93545.31;5071640;28;20741;-69
2022/10/24 00:15:52;;;;;;;11.30;10.20;;;;;;;11.34;94.91;93542.22;5072378;28;20228;-69
2022/10/24 00:18:18;;;;;;;11.17;10.13;;;;;;;11.35;94.95;93541.16;5071928;28;20220;-69
2022/10/24 00:20:43;;;;;;;9.70;8.80;;;;;;;11.23;95.78;93535.41;5072639;28;20195;-69
2022/10/24 00:23:12;;;;;;;10.30;9.43;;;;;;;11.48;94.95;93536.47;5070749;28;20236;-69
2022/10/24 00:25:38;;;;;;;10.40;9.60;;;;;;;11.35;94.40;93528.09;5072206;28;20187;-69
2022/10/24 00:28:03;;;;;;;9.23;8.63;;;;;;;11.39;94.45;93536.22;5071597;28;20234;-68
2022/10/24 00:30:29;;;;;;;12.13;11.03;;;;;;;11.38;94.83;93533.84;5071260;28;20262;-69
2022/10/24 00:32:55;;;;;;;10.70;9.90;;;;;;;11.25;95.23;93535.91;5070955;28;20184;-68
2022/10/24 00:35:20;;;;;;;10.67;9.97;;;;;;;11.17;95.51;93522.59;5072992;28;20190;-67
2022/10/24 00:37:46;;;;;;;12.03;9.90;;;;;;;11.22;95.76;93528.59;5071475;28;20263;-69
2022/10/24 00:40:16;;;;;;;10.30;9.63;;;;;;;11.34;95.32;93523.13;5070686;28;20189;-69
2022/10/24 00:42:41;;;;;;;9.97;9.13;;;;;;;11.14;96.06;93520.50;5071589;28;20200;-69
2022/10/24 00:45:40;;;;;;;10.20;9.50;;;;;;;11.23;96.22;93529.38;5070316;28;20197;-69
2022/10/24 00:48:15;;;;;;;10.37;9.70;;;;;;;11.20;96.01;93517.63;5071739;28;20252;-70
2022/10/24 00:50:41;;;;;;;10.03;9.23;;;;;;;11.24;96.36;93521.28;5072306;28;20226;-70
2022/10/24 00:53:07;;;;;;;10.80;9.57;;;;;;;11.13;96.81;93526.75;5071543;28;20231;-68
2022/10/24 00:55:32;;;;;;;10.33;9.73;;;;;;;11.30;96.74;93527.28;5071026;28;20202;-69
2022/10/24 00:58:00;;;;;;;10.53;9.73;;;;;;;11.19;96.53;93531.72;5071421;28;20237;-69
2022/10/24 01:00:29;;;;;;;10.70;9.63;;;;;;;11.11;97.01;93527.00;5071711;28;20274;-68
2022/10/24 01:02:55;;;;;;;11.00;10.20;;;;;;;11.11;97.28;93534.09;5071308;28;20213;-69
2022/10/24 01:05:25;;;;;;;10.10;9.37;;;;;;;11.07;97.52;93531.19;5071196;28;20219;-68
2022/10/24 01:08:03;;;;;;;10.67;9.67;;;;;;;11.03;97.62;93521.53;5071152;28;20197;-69
2022/10/24 01:10:52;;;;;;;10.90;10.00;;;;;;;11.05;97.59;93528.03;5071175;28;20219;-69
2022/10/24 01:13:36;;;;;;;10.30;9.70;;;;;;;11.11;97.58;93534.09;5070566;28;20252;-69
2022/10/24 01:16:08;;;;;;;10.13;9.43;;;;;;;11.09;97.06;93528.31;5070166;28;20189;-68
2022/10/24 01:18:38;;;;;;;10.47;9.87;;;;;;;11.09;97.33;93523.09;5071114;28;20269;-70
2022/10/24 01:21:27;;;;;;;9.70;9.10;;;;;;;11.08;97.36;93519.69;5070246;28;20190;-69
2022/10/24 01:24:15;;;;;;;11.03;10.23;;;;;;;11.06;97.39;93532.25;5070907;28;20225;-69
2022/10/24 01:26:40;;;;;;;10.87;10.20;;;;;;;10.89;97.83;93529.06;5070774;28;20190;-69
2022/10/24 01:29:28;;;;;;;10.37;9.63;;;;;;;10.84;98.68;93530.88;5070665;28;20255;-70
2022/10/24 01:32:01;;;;;;;11.07;10.27;;;;;;;10.91;98.51;93524.34;5070724;28;20244;-69
2022/10/24 01:34:49;;;;;;;10.53;9.93;;;;;;;10.87;98.49;93522.53;5070447;28;20241;-69
2022/10/24 01:37:22;;;;;;;10.60;9.67;;;;;;;10.91;98.45;93532.19;5069593;28;20233;-69
2022/10/24 01:39:52;;;;;;;10.97;10.17;;;;;;;10.89;98.22;93531.69;5069852;28;20233;-69
2022/10/24 01:42:21;;;;;;;11.50;10.70;;;;;;;10.86;98.66;93524.34;5069983;28;20192;-69
2022/10/24 01:44:50;;;;;;;10.30;9.63;;;;;;;10.83;98.32;93524.84;5068615;28;20280;-70
2022/10/24 01:47:27;;;;;;;10.63;9.93;;;;;;;10.88;98.01;93517.03;5070915;28;20194;-69
2022/10/24 01:49:58;;;;;;;11.23;10.37;;;;;;;10.88;98.28;93526.72;5068666;28;21086;-68
2022/10/24 01:52:29;;;;;;;11.27;10.13;;;;;;;10.83;98.09;93511.03;5070663;28;20225;-69
2022/10/24 01:54:55;;;;;;;11.40;10.47;;;;;;;10.78;99.33;93524.84;5069506;28;20245;-69
2022/10/24 01:57:27;;;;;;;12.57;11.67;;;;;;;10.84;98.65;93523.03;5069431;28;20226;-69
2022/10/24 01:59:52;;;;;;;10.93;10.13;;;;;;;10.87;98.13;93528.53;5085470;28;20233;-69
2022/10/24 02:02:18;;;;;;;11.13;10.13;;;;;;;10.79;98.36;93518.59;5069042;28;20179;-69
2022/10/24 02:04:56;;;;;;;11.23;10.47;;;;;;;10.74;98.83;93518.56;5069731;28;20226;-71
2022/10/24 02:07:23;;;;;;;12.17;11.37;;;;;;;10.72;98.99;93514.66;5070114;28;20197;-70
2022/10/24 02:09:55;;;;;;;11.70;10.70;;;;;;;10.54;99.12;93504.66;5068719;28;20225;-71
2022/10/24 02:12:22;;;;;;;11.93;10.83;;;;;;;10.51;99.72;93518.22;5069954;28;20203;-71
2022/10/24 02:14:52;;;;;;;10.33;9.53;;;;;;;10.54;100.00;93521.09;5069830;28;20225;-71
2022/10/24 02:17:18;;;;;;;12.50;11.37;;;;;;;10.48;100.00;93518.72;5070262;28;20251;-71
2022/10/24 02:19:45;;;;;;;11.40;10.50;;;;;;;10.45;100.00;93520.03;5069591;28;20221;-72
2022/10/24 02:22:20;;;;;;;11.37;10.50;;;;;;;10.51;100.00;93524.22;5084916;28;20190;-71
2022/10/24 02:25:08;;;;;;;11.33;10.63;;;;;;;10.49;100.00;93522.94;5069308;28;20285;-71
2022/10/24 02:27:39;;;;;;;11.30;10.43;;;;;;;10.47;100.00;93517.97;5069914;28;20194;-70
2022/10/24 02:30:10;;;;;;;10.67;9.87;;;;;;;10.45;100.00;93509.59;5049650;28;20210;-71
2022/10/24 02:32:40;;;;;;;11.33;10.27;;;;;;;10.57;100.00;93509.34;5048845;28;20167;-71
2022/10/24 02:35:08;;;;;;;10.97;10.17;;;;;;;10.73;100.00;93519.63;5049231;28;20266;-71
2022/10/24 02:37:38;;;;;;;11.03;10.33;;;;;;;10.78;100.00;93522.25;5049734;28;20203;-71
2022/10/24 02:40:07;;;;;;;10.03;9.37;;;;;;;10.67;100.00;93522.47;5049088;28;20214;-71
2022/10/24 02:42:34;;;;;;;12.60;11.57;;;;;;;10.83;100.00;93522.25;5048420;28;20217;-72
2022/10/24 02:45:00;;;;;;;12.00;11.13;;;;;;;10.80;100.00;93516.75;5048930;28;20332;-71
2022/10/24 02:47:28;;;;;;;12.40;10.60;;;;;;;10.74;100.00;93515.94;5049441;28;20198;-71
2022/10/24 02:49:54;;;;;;;11.07;10.23;;;;;;;10.83;100.00;93514.41;5048349;28;20243;-70
2022/10/24 02:52:22;;;;;;;11.87;10.87;;;;;;;10.75;100.00;93517.53;5050031;28;20174;-72
2022/10/24 02:54:47;;;;;;;10.40;9.50;;;;;;;10.74;100.00;93521.16;5049248;28;20221;-71
2022/10/24 02:57:14;;;;;;;11.77;10.93;;;;;;;10.69;100.00;93523.75;5049701;28;20235;-71
2022/10/24 02:59:39;;;;;;;11.20;10.50;;;;;;;10.76;100.00;93526.13;5049266;28;20229;-71
2022/10/24 03:02:05;;;;;;;11.00;10.27;;;;;;;10.77;100.00;93520.66;5049503;28;20191;-72
2022/10/24 03:04:30;;;;;;;11.13;10.40;;;;;;;10.84;100.00;93523.03;5049477;28;20218;-71
2022/10/24 03:06:55;;;;;;;9.87;9.13;;;;;;;10.74;100.00;93517.78;5050315;28;20197;-71
2022/10/24 03:09:21;;;;;;;11.17;10.10;;;;;;;10.67;100.00;93506.78;5063398;28;20224;-71
2022/10/24 03:11:46;;;;;;;11.63;10.60;;;;;;;10.61;100.00;93518.25;5069651;28;20241;-69
2022/10/24 03:14:12;;;;;;;10.50;9.70;;;;;;;10.61;100.00;93508.63;5067886;28;20218;-70
2022/10/24 03:16:37;;;;;;;10.70;9.77;;;;;;;10.59;100.00;93504.66;5069607;28;20181;-71
2022/10/24 03:19:02;;;;;;;12.20;10.23;;;;;;;10.52;100.00;93507.50;5068722;28;20228;-71
2022/10/24 03:21:28;;;;;;;11.53;10.73;;;;;;;10.53;100.00;93511.72;5068655;28;20201;-71
2022/10/24 03:23:53;;;;;;;16.20;10.60;;;;;;;10.48;100.00;93505.66;5068468;28;20258;-71
2022/10/24 03:26:18;;;;;;;11.63;10.67;;;;;;;10.44;100.00;93502.81;5069610;28;20208;-70
2022/10/24 03:28:44;;;;;;;10.80;9.97;;;;;;;10.47;100.00;93512.75;5074282;28;20243;-71
2022/10/24 03:31:09;;;;;;;10.67;10.07;;;;;;;10.34;100.00;93515.81;5076288;28;20185;-70
2022/10/24 03:33:35;;;;;;;11.60;10.47;;;;;;;10.50;100.00;93520.06;5075030;28;20224;-71
2022/10/24 03:36:00;;;;;;;11.57;10.53;;;;;;;10.31;100.00;93503.25;5075653;28;20185;-70
2022/10/24 03:38:25;;;;;;;12.50;11.57;;;;;;;10.31;100.00;93513.69;5074593;28;20240;-70
2022/10/24 03:40:51;;;;;;;13.00;12.00;;;;;;;10.23;100.00;93516.78;5075256;28;20247;-71
2022/10/24 03:43:17;;;;;;;12.27;11.37;;;;;;;10.26;100.00;93511.06;5075323;28;20229;-70
2022/10/24 03:45:43;;;;;;;13.20;11.87;;;;;;;10.25;100.00;93508.72;5075538;28;20181;-71
2022/10/24 03:48:09;;;;;;;13.03;11.90;;;;;;;10.32;100.00;93499.59;5074595;28;20251;-71
2022/10/24 03:50:34;;;;;;;12.30;11.20;;;;;;;10.24;100.00;93517.59;5075056;28;20184;-71
2022/10/24 03:53:00;;;;;;;11.87;10.67;;;;;;;10.24;100.00;93515.75;5075025;28;20236;-71
2022/10/24 03:55:27;;;;;;;12.87;11.43;;;;;;;10.18;100.00;93523.81;5073992;28;20181;-71
2022/10/24 03:57:53;;;;;;;12.23;11.33;;;;;;;10.18;100.00;93510.78;5074253;28;20252;-68
2022/10/24 04:00:19;;;;;;;12.27;11.50;;;;;;;10.11;100.00;93511.00;5072589;28;20194;-68
2022/10/24 04:02:45;;;;;;;12.10;10.73;;;;;;;10.09;100.00;93512.28;5073779;28;20230;-68
2022/10/24 04:05:11;;;;;;;12.47;11.33;;;;;;;10.08;100.00;93511.50;5074743;28;20197;-69
2022/10/24 04:07:37;;;;;;;13.23;12.23;;;;;;;10.15;100.00;93509.44;5074837;28;20197;-68
2022/10/24 04:10:04;;;;;;;12.30;11.33;;;;;;;10.12;100.00;93509.94;5073755;28;20228;-68
2022/10/24 04:12:29;;;;;;;11.87;10.83;;;;;;;10.18;100.00;93503.72;5073125;28;20210;-68
2022/10/24 04:14:55;;;;;;;13.47;11.10;;;;;;;10.20;100.00;93501.66;5073004;28;20229;-68
2022/10/24 04:17:20;;;;;;;11.23;10.33;;;;;;;10.22;100.00;93496.16;5073839;28;20207;-68
2022/10/24 04:19:45;;;;;;;11.20;10.30;;;;;;;10.26;100.00;93498.00;5073404;28;20221;-71
2022/10/24 04:22:11;;;;;;;12.37;11.53;;;;;;;10.21;100.00;93492.78;5074504;28;20258;-70
2022/10/24 04:24:38;;;;;;;12.93;11.93;;;;;;;10.18;100.00;93497.72;5074247;28;20222;-70
2022/10/24 04:27:04;;;;;;;13.40;12.10;;;;;;;10.32;100.00;93499.59;5074288;28;20198;-70
2022/10/24 04:29:29;;;;;;;14.03;10.77;;;;;;;10.36;100.00;93495.47;5073365;28;20229;-71
2022/10/24 04:31:55;;;;;;;13.50;12.17;;;;;;;10.25;100.00;93488.63;5075102;28;20201;-75
2022/10/24 04:34:20;;;;;;;15.20;13.90;;;;;;;10.30;100.00;93506.94;5072194;28;20271;-68
2022/10/24 04:36:45;;;;;;;13.17;11.77;;;;;;;10.36;100.00;93500.69;5073528;28;20271;-68
2022/10/24 04:39:11;;;;;;;18.13;11.60;;;;;;;10.29;100.00;93507.94;5069567;28;20224;-67
2022/10/24 04:41:36;;;;;;;13.47;12.20;;;;;;;10.19;100.00;93501.91;5070942;28;20182;-68
2022/10/24 04:44:02;;;;;;;14.07;11.20;;;;;;;10.24;100.00;93510.53;5070596;28;20241;-68
2022/10/24 04:46:28;;;;;;;11.90;10.80;;;;;;;10.27;100.00;93515.25;5071347;28;20190;-68
2022/10/24 04:48:53;;;;;;;13.83;12.43;;;;;;;10.23;100.00;93516.78;5070708;28;20229;-69
2022/10/24 04:51:19;;;;;;;12.43;11.53;;;;;;;10.11;100.00;93508.38;5071133;28;20248;-68
2022/10/24 04:53:44;;;;;;;13.10;12.10;;;;;;;10.24;100.00;93526.19;5069198;28;20228;-69
2022/10/24 04:56:10;;;;;;;12.97;11.33;;;;;;;10.11;100.00;93512.81;5069573;28;20245;-68
2022/10/24 04:58:35;;;;;;;13.73;12.37;;;;;;;10.24;100.00;93522.81;5069035;28;20297;-68
2022/10/24 05:01:00;;;;;;;19.83;12.03;;;;;;;10.18;100.00;93514.16;5069791;28;20186;-68
2022/10/24 05:03:26;;;;;;;12.47;11.50;;;;;;;10.28;100.00;93529.88;5069824;28;20226;-69
2022/10/24 05:05:51;;;;;;;12.93;11.90;;;;;;;10.11;100.00;93508.38;5068948;28;20205;-70
2022/10/24 05:08:16;;;;;;;13.17;11.80;;;;;;;10.17;100.00;93528.25;5070707;28;20240;-69
2022/10/24 05:10:42;;;;;;;12.57;11.60;;;;;;;10.14;100.00;93523.53;5069612;28;20217;-69
2022/10/24 05:13:08;;;;;;;12.60;11.43;;;;;;;10.14;100.00;93505.28;5070206;28;20229;-69
2022/10/24 05:15:33;;;;;;;12.43;11.27;;;;;;;10.28;100.00;93524.66;5070533;28;20201;-69
2022/10/24 05:17:59;;;;;;;14.00;11.37;;;;;;;10.22;100.00;93514.44;5069623;28;20593;-68
2022/10/24 05:20:24;;;;;;;13.67;12.53;;;;;;;10.31;100.00;93515.53;5070626;28;20187;-69
2022/10/24 05:22:50;;;;;;;15.03;13.67;;;;;;;10.47;100.00;93528.41;5070917;28;20216;-68
2022/10/24 05:25:15;;;;;;;13.40;12.30;;;;;;;10.40;100.00;93524.44;5070689;28;20169;-69
2022/10/24 05:27:41;;;;;;;14.10;12.67;;;;;;;10.35;100.00;93512.16;5069818;28;20205;-68
2022/10/24 05:30:07;;;;;;;21.93;12.57;;;;;;;10.56;100.00;93528.69;5070723;28;20272;-69
2022/10/24 05:32:32;;;;;;;13.50;12.40;;;;;;;10.65;100.00;93527.94;5069818;28;20193;-69
2022/10/24 05:34:57;;;;;;;13.47;12.30;;;;;;;10.65;100.00;93520.09;5069749;28;20776;-69
2022/10/24 05:37:23;;;;;;;16.13;12.60;;;;;;;10.78;100.00;93524.84;5069798;28;20264;-68
2022/10/24 05:39:48;;;;;;;12.00;11.03;;;;;;;10.85;100.00;93525.38;5051395;28;20223;-68
2022/10/24 05:42:14;;;;;;;12.43;11.33;;;;;;;11.02;100.00;93525.16;5050158;28;20190;-69
2022/10/24 05:44:40;;;;;;;11.27;10.40;;;;;;;11.14;100.00;93529.09;5041504;28;20257;-68
2022/10/24 05:47:05;;;;;;;11.50;10.43;;;;;;;11.22;100.00;93514.75;5043398;28;20194;-69
2022/10/24 05:49:31;;;;;;;11.27;10.17;;;;;;;11.36;100.00;93521.81;5062500;28;20229;-68
2022/10/24 05:51:56;;;;;;;15.10;10.27;;;;;;;11.35;100.00;93528.09;5069524;28;20197;-68
2022/10/24 05:54:22;;;;;;;12.73;11.50;;;;;;;11.49;100.00;93535.44;5069193;28;20233;-68
2022/10/24 05:56:47;;;;;;;11.77;10.67;;;;;;;11.47;99.72;93517.38;5069872;28;20274;-70
2022/10/24 05:59:13;;;;;;;11.63;10.63;;;;;;;11.64;98.12;93528.41;5067869;28;20229;-69
2022/10/24 06:01:39;;;;;;;11.60;10.57;;;;;;;11.79;97.11;93551.16;5069513;28;20199;-68
2022/10/24 06:04:04;;;;;;;11.30;10.27;;;;;;;11.48;99.27;93534.66;5069400;28;20285;-69
2022/10/24 06:06:30;;;;;;;13.13;11.87;;;;;;;11.36;98.68;93516.59;5068642;28;20189;-68
2022/10/24 06:08:55;;;;;;;14.67;13.10;;;;;;;11.60;97.65;93550.06;5069864;28;20297;-68
2022/10/24 06:11:20;;;;;;;17.53;15.00;;;;;;;11.75;96.45;93557.97;5068679;28;20226;-68
2022/10/24 06:13:46;;;;;;;15.17;13.67;;;;;;;11.79;95.30;93564.22;5067918;28;20216;-68
2022/10/24 06:16:11;;;;;;;16.40;14.67;;;;;;;11.80;95.71;93568.44;5069465;28;20241;-70
2022/10/24 06:18:38;;;;;;;18.60;16.60;;;;;;;11.97;94.33;93559.25;5069053;28;20228;-69
2022/10/24 06:21:05;;;;;;;17.40;15.53;;;;;;;11.75;96.65;93565.81;5069131;28;20230;-69
2022/10/24 06:23:31;;;;;;;16.80;15.17;;;;;;;11.85;96.27;93557.94;5068492;28;20249;-68
2022/10/24 06:25:56;;;;;;;17.27;15.47;;;;;;;11.61;97.70;93559.50;5069046;28;20193;-68
2022/10/24 06:28:22;;;;;;;16.30;14.47;;;;;;;11.85;97.16;93557.94;5068666;28;20235;-67
2022/10/24 06:30:49;;;;;;;17.07;14.43;;;;;;;11.82;97.59;93571.56;5068286;28;20184;-69
2022/10/24 06:33:14;;;;;;;13.63;12.33;;;;;;;12.25;94.92;93563.16;5063427;28;20224;-68
2022/10/24 06:35:40;;;;;;;16.97;13.43;;;;;;;12.20;94.37;93558.69;5048531;28;20200;-68
2022/10/24 06:38:05;;;;;;;12.17;11.17;;;;;;;12.30;92.61;93570.97;5048379;28;20256;-67
2022/10/24 06:40:31;;;;;;;19.70;15.47;;;;;;;12.57;92.78;93563.59;5048663;28;20178;-68
2022/10/24 06:42:56;;;;;;;16.70;14.90;;;;;;;12.41;93.13;93548.97;5047915;28;20182;-68
2022/10/24 06:45:22;;;;;;;20.27;15.93;;;;;;;12.74;93.25;93577.16;5048736;28;20198;-68
2022/10/24 06:47:49;;;;;;;19.43;15.70;;;;;;;12.77;94.01;93581.84;5047581;28;20194;-67
2022/10/24 06:50:15;;;;;;;21.07;16.40;;;;;;;12.81;93.90;93583.66;5039781;28;20258;-68
2022/10/24 06:52:40;;;;;;;22.43;17.17;;;;;;;12.84;92.75;93574.50;5038949;28;20190;-69
2022/10/24 06:55:06;;;;;;;19.83;16.67;;;;;;;13.13;90.12;93593.78;5048386;28;20191;-69
2022/10/24 06:57:31;;;;;;;21.53;18.03;;;;;;;12.85;92.95;93599.66;5047900;28;20214;-68
2022/10/24 06:59:57;;;;;;;23.87;17.40;;;;;;;12.87;91.85;93600.19;5043230;28;20233;-69
2022/10/24 07:02:22;;;;;;;19.63;17.07;;;;;;;12.48;94.72;93602.63;5040251;28;20209;-68
2022/10/24 07:04:47;;;;;;;22.23;17.43;;;;;;;12.98;92.30;93600.91;5057329;28;20300;-68
2022/10/24 07:07:19;;;;;;;19.30;17.30;;;;;;;12.78;94.03;93602.56;5061135;28;20205;-68
2022/10/24 07:09:50;;;;;;;28.90;17.80;;;;;;;12.90;93.48;93591.78;5058862;28;20229;-70
2022/10/24 07:12:15;;;;;;;22.30;17.33;;;;;;;12.98;93.69;93590.44;5059061;28;20318;-68
2022/10/24 07:14:40;;;;;;;18.23;16.20;;;;;;;13.03;93.43;93593.84;5058890;28;20250;-68
2022/10/24 07:17:06;;;;;;;20.90;17.63;;;;;;;13.68;89.82;93593.47;5060272;28;20217;-68
2022/10/24 07:19:31;;;;;;;18.73;16.27;;;;;;;13.78;88.14;93582.91;5059247;28;20301;-68
2022/10/24 07:21:57;;;;;;;21.70;18.20;;;;;;;14.02;87.12;93594.25;5059689;28;20277;-68
2022/10/24 07:24:23;;;;;;;22.87;18.20;;;;;;;13.91;87.45;93587.53;5064276;28;20236;-68
2022/10/24 07:26:48;;;;;;;17.73;15.43;;;;;;;13.96;87.84;93581.47;5068171;28;20213;-68
2022/10/24 07:29:13;;;;;;;26.80;15.67;;;;;;;14.08;86.46;93590.56;5067963;28;20259;-67
2022/10/24 07:31:39;;;;;;;18.50;16.60;;;;;;;14.12;86.62;93586.31;5068126;28;20181;-67
2022/10/24 07:34:06;;;;;;;21.17;16.13;;;;;;;14.24;86.72;93594.63;5068013;28;20229;-69
2022/10/24 07:36:32;;;;;;;16.83;15.03;;;;;;;14.53;84.13;93592.00;5067158;28;20193;-70
2022/10/24 07:38:59;;;;;;;17.40;15.43;;;;;;;14.56;82.54;93595.91;5067801;28;20235;-70
2022/10/24 07:41:26;;;;;;;24.87;16.20;;;;;;;14.39;83.16;93602.38;5067364;28;20292;-69
2022/10/24 07:43:53;;;;;;;18.30;14.77;;;;;;;14.75;80.90;93602.03;5066804;28;20256;-69
2022/10/24 07:46:20;;;;;;;27.37;16.73;;;;;;;14.48;80.77;93598.09;5068569;28;20193;-69
2022/10/24 07:48:48;;;;;;;21.57;16.80;;;;;;;14.70;80.05;93607.31;5067281;28;20239;-69
2022/10/24 07:51:14;;;;;;;17.90;16.00;;;;;;;14.54;82.16;93608.56;5068136;28;20185;-69
2022/10/24 07:53:40;;;;;;;27.50;16.27;;;;;;;14.69;80.93;93600.50;5067206;28;20239;-69
2022/10/24 07:56:09;;;;;;;19.83;14.73;;;;;;;15.05;78.52;93604.31;5068239;28;20309;-70
2022/10/24 07:58:35;;;;;;;17.50;15.20;;;;;;;14.91;79.06;93603.44;5067348;28;20235;-69
2022/10/24 08:01:11;;;;;;;17.97;16.07;;;;;;;15.08;78.85;93594.00;5067843;28;20252;-69
2022/10/24 08:03:36;;;;;;;18.03;14.63;;;;;;;14.84;79.73;93589.81;5082259;28;20246;-70
2022/10/24 08:06:11;;;;;;;17.30;15.47;;;;;;;15.27;76.84;93588.81;5067611;28;20214;-68
2022/10/24 08:08:37;;;;;;;17.97;14.83;;;;;;;15.10;78.45;93601.59;5067878;28;20227;-68
2022/10/24 08:11:14;;;;;;;17.97;16.07;;;;;;;15.35;76.47;93598.66;5066720;28;20257;-69
2022/10/24 08:13:40;;;;;;;17.07;14.97;;;;;;;15.49;75.67;93591.66;5069326;28;20238;-70
2022/10/24 08:16:07;;;;;;;18.57;13.93;;;;;;;15.59;75.11;93579.16;5070689;28;20197;-69
2022/10/24 08:18:33;;;;;;;15.60;13.80;;;;;;;15.81;73.27;93583.84;5070851;28;20217;-69
2022/10/24 08:21:00;;;;;;;22.07;14.23;;;;;;;15.96;73.03;93597.56;5071284;28;20241;-69
2022/10/24 08:23:26;;;;;;;15.50;13.27;;;;;;;15.89;72.04;93601.66;5070955;28;20225;-69
2022/10/24 08:25:51;;;;;;;15.83;14.10;;;;;;;15.88;72.75;93600.06;5071115;28;21215;-69
2022/10/24 08:28:16;;;;;;;17.80;14.20;;;;;;;15.79;73.12;93592.03;5070348;28;20274;-70
2022/10/24 08:30:42;;;;;;;16.07;14.00;;;;;;;15.98;71.68;93587.50;5068633;28;20202;-69
2022/10/24 08:33:07;;;;;;;23.93;15.77;;;;;;;15.88;72.29;93581.63;5066961;28;20230;-70
2022/10/24 08:35:33;;;;;;;16.23;14.53;;;;;;;15.98;72.09;93576.97;5051297;28;20253;-69
2022/10/24 08:38:00;;;;;;;19.97;15.13;;;;;;;16.06;72.54;93592.13;5050161;28;20233;-70
2022/10/24 08:40:26;;;;;;;18.03;16.00;;;;;;;16.19;72.31;93585.34;5041934;28;20182;-69
2022/10/24 08:42:52;;;;;;;17.93;16.13;;;;;;;15.95;73.08;93576.78;5042592;28;20213;-69
2022/10/24 08:45:42;;;;;;;15.70;13.93;;;;;;;16.22;71.20;93587.41;5042572;28;20187;-69
2022/10/24 08:48:12;;;;;;;15.73;14.07;;;;;;;16.20;72.17;93581.66;5042130;28;20225;-70
2022/10/24 08:50:44;;;;;;;19.60;13.83;;;;;;;16.25;71.29;93568.38;5050268;28;20194;-70
2022/10/24 08:53:15;;;;;;;18.80;13.23;;;;;;;16.00;73.39;93574.06;5052488;28;20285;-69
2022/10/24 08:55:50;;;;;;;20.90;14.33;;;;;;;16.03;73.22;93568.25;5070275;28;20200;-68
2022/10/24 08:58:22;;;;;;;17.17;14.73;;;;;;;16.53;71.20;93574.53;5069899;28;20229;-70
2022/10/24 09:00:50;;;;;;;17.13;13.97;;;;;;;16.75;70.38;93566.72;5068790;28;20193;-68
2022/10/24 09:03:25;;;;;;;19.37;14.30;;;;;;;16.54;71.72;93563.69;5070765;28;20225;-71
2022/10/24 09:05:55;;;;;;;19.10;14.07;;;;;;;16.85;69.06;93569.97;5070870;28;20197;-66
2022/10/24 09:08:52;;;;;;;16.43;14.43;;;;;;;16.90;68.70;93567.22;5070805;28;20229;-66
2022/10/24 09:11:35;;;;;;;15.87;14.43;;;;;;;16.95;68.48;93561.84;5070204;28;20236;-67
2022/10/24 09:14:01;;;;;;;19.87;13.47;;;;;;;16.75;69.37;93564.88;5070219;28;20268;-68
2022/10/24 09:16:27;;;;;;;15.60;14.10;;;;;;;16.77;69.71;93567.22;5070158;28;20189;-68
2022/10/24 09:18:55;;;;;;;22.07;15.30;;;;;;;17.04;68.03;93565.34;5069694;28;20253;-68
2022/10/24 09:21:22;;;;;;;23.27;14.23;;;;;;;16.98;67.79;93563.88;5070209;28;20257;-68
2022/10/24 09:23:49;;;;;;;19.00;13.20;;;;;;;16.78;68.77;93559.00;5069998;28;20744;-67
2022/10/24 09:26:27;;;;;;;21.33;13.17;;;;;;;17.23;67.49;93560.75;5069150;28;20196;-67
2022/10/24 09:28:55;;;;;;;14.57;12.27;;;;;;;17.26;66.45;93554.88;5058123;28;20261;-67
2022/10/24 09:31:23;;;;;;;17.17;12.63;;;;;;;17.26;67.62;93564.66;5049609;28;20183;-67
2022/10/24 09:33:51;;;;;;;14.63;12.23;;;;;;;17.42;66.17;93564.03;5049593;28;20256;-67
2022/10/24 09:36:19;;;;;;;13.43;12.30;;;;;;;17.37;66.04;93566.00;5049476;28;20270;-68
2022/10/24 09:38:47;;;;;;;17.47;12.87;;;;;;;17.62;64.71;93562.06;5049558;28;20226;-67
2022/10/24 09:41:24;;;;;;;16.33;13.10;;;;;;;17.39;65.80;93558.56;5049184;28;20216;-68
2022/10/24 09:43:55;;;;;;;16.23;12.33;;;;;;;17.25;66.75;93555.94;5059469;28;20214;-69
2022/10/24 09:46:20;;;;;;;18.47;12.47;;;;;;;17.45;65.29;93552.13;5068972;28;20198;-68
2022/10/24 09:49:11;;;;;;;15.10;12.13;;;;;;;17.63;64.36;93549.31;5058946;28;20233;-68
2022/10/24 09:51:40;;;;;;;16.07;14.00;;;;;;;17.81;63.73;93549.47;5047666;28;20187;-70
2022/10/24 09:54:18;;;;;;;12.13;10.93;;;;;;;17.89;64.10;93544.25;5044297;28;20221;-69
2022/10/24 09:56:47;;;;;;;12.17;10.97;;;;;;;18.03;63.19;93546.81;5046029;28;20183;-69
2022/10/24 09:59:32;;;;;;;12.30;11.20;;;;;;;18.13;62.79;93554.53;5053961;28;20304;-69
2022/10/24 10:02:09;;;;;;;15.10;11.70;;;;;;;18.07;62.89;93545.16;5046610;28;20202;-69
2022/10/24 10:04:35;;;;;;;13.37;11.40;;;;;;;18.03;62.31;93537.03;5064095;28;20228;-70
2022/10/24 10:07:15;;;;;;;20.63;11.50;;;;;;;18.30;61.91;93552.78;5069832;28;20186;-69
2022/10/24 10:09:56;;;;;;;12.63;10.80;;;;;;;18.22;61.92;93536.84;5069225;28;20240;-69
2022/10/24 10:12:35;;;;;;;13.83;11.67;;;;;;;18.34;60.85;93547.66;5069091;28;20206;-68
2022/10/24 10:15:17;;;;;;;11.27;10.30;;;;;;;18.33;61.46;93541.59;5068552;28;20219;-68
2022/10/24 10:17:55;;;;;;;14.23;11.73;;;;;;;18.44;61.48;93534.22;5068599;28;20213;-69
2022/10/24 10:20:32;;;;;;;11.23;10.23;;;;;;;18.48;61.84;93543.09;5069354;28;20198;-68
2022/10/24 10:23:24;;;;;;;14.77;11.10;;;;;;;18.62;61.12;93533.19;5068392;28;20294;-68
2022/10/24 10:26:20;;;;;;;13.70;10.63;;;;;;;18.64;61.26;93538.97;5069257;28;20232;-68
2022/10/24 10:28:58;;;;;;;15.03;10.33;;;;;;;18.76;60.32;93539.16;5067697;28;20226;-67
2022/10/24 10:31:31;;;;;;;11.97;10.77;;;;;;;18.82;59.09;93524.72;5069176;28;20194;-68
2022/10/24 10:34:14;;;;;;;15.47;9.97;;;;;;;18.79;59.70;93539.34;5068741;28;20233;-67
2022/10/24 10:36:53;;;;;;;14.43;10.10;;;;;;;18.83;59.76;93524.41;5067300;28;21016;-68
2022/10/24 10:39:31;;;;;;;10.07;9.17;;;;;;;18.79;58.72;93526.13;5068403;28;20240;-67
2022/10/24 10:42:08;;;;;;;10.97;10.00;;;;;;;19.09;57.73;93519.19;5068679;28;20195;-68
2022/10/24 10:44:56;;;;;;;10.00;9.13;;;;;;;19.01;58.12;93517.31;5068709;28;20222;-68
2022/10/24 10:47:39;;;;;;;10.57;9.57;;;;;;;18.77;58.83;93522.22;5067632;28;20207;-68
2022/10/24 10:50:31;;;;;;;10.90;10.00;;;;;;;19.03;57.54;93502.69;5048094;28;20270;-68
2022/10/24 10:53:41;;;;;;;10.23;9.33;;;;;;;19.12;57.60;93510.63;5046563;28;20195;-68
2022/10/24 10:56:24;;;;;;;11.10;10.07;;;;;;;19.07;57.92;93503.63;5038649;28;20196;-67
2022/10/24 10:59:08;;;;;;;11.63;9.97;;;;;;;19.09;57.88;93504.09;5047713;28;20240;-68
2022/10/24 11:01:56;;;;;;;11.17;9.93;;;;;;;19.16;58.39;93501.75;5048956;28;20220;-69
2022/10/24 11:04:30;;;;;;;12.57;10.40;;;;;;;19.35;57.81;93498.84;5047765;28;20237;-68
2022/10/24 11:07:22;;;;;;;11.70;10.60;;;;;;;19.54;56.28;93496.69;5047247;28;20188;-68
2022/10/24 11:09:50;;;;;;;10.23;9.23;;;;;;;19.26;57.51;93490.09;5048132;28;20231;-68
2022/10/24 11:12:31;;;;;;;11.73;9.17;;;;;;;19.49;57.57;93488.91;5048700;28;20225;-68
2022/10/24 11:15:13;;;;;;;9.87;8.87;;;;;;;19.63;55.83;93494.81;5065169;28;20331;-68
2022/10/24 11:17:48;;;;;;;10.73;9.90;;;;;;;19.54;55.88;93491.41;5062019;28;20224;-71
2022/10/24 11:20:50;;;;;;;12.70;9.60;;;;;;;19.55;55.87;93479.69;5067615;28;20202;-67
2022/10/24 11:24:03;;;;;;;11.13;10.07;;;;;;;19.67;56.18;93484.38;5042175;28;20247;-67
2022/10/24 11:26:36;;;;;;;12.83;11.40;;;;;;;19.65;57.47;93481.25;5059662;28;20208;-68
2022/10/24 11:29:10;;;;;;;16.30;10.73;;;;;;;19.79;55.30;93482.66;5067046;28;20237;-69